Marysville, Montana
Current Conditions -  °F | °C
As of 8:53 PM on Saturday 22 Nov 2014 (Local Time) from KHLN Reporting Station
Few Clouds Few Clouds  
Wind Chill: 27°   Ceiling: Unl
Heat Index: 36°   Visibility: 10mi
Dew Point: 20°   Wind: 14mph
Humidity: 52%   Direction: 270°W
Pressure: 29.66"   Gusts: NA
Location:  46.75°N, 112.3°W
Report Text: KHLN 230353Z 27012KT 10SM FEW050 02/M07 A2966 RMK AO2 SLP070 T00221067
Loading
Personal Weather Stations






























Interactive Weather Map New forecast layout! Learn more

10-Day Weather Forecast

Advertisements
Track Severe Weather on mobile